sensor_id;sensor_type;location;lat;lon;timestamp;temperature;humidity
9971;DHT22;5026;51.494;11.974;2022-07-23T00:00:08;18.40;93.30
9971;DHT22;5026;51.494;11.974;2022-07-23T00:02:35;18.40;93.30
9971;DHT22;5026;51.494;11.974;2022-07-23T00:05:03;18.20;93.40
9971;DHT22;5026;51.494;11.974;2022-07-23T00:07:30;18.20;93.50
9971;DHT22;5026;51.494;11.974;2022-07-23T00:09:57;18.10;93.50
9971;DHT22;5026;51.494;11.974;2022-07-23T00:12:24;18.20;93.60
9971;DHT22;5026;51.494;11.974;2022-07-23T00:14:51;18.20;93.60
9971;DHT22;5026;51.494;11.974;2022-07-23T00:17:19;18.10;93.60
9971;DHT22;5026;51.494;11.974;2022-07-23T00:19:47;18.20;93.70
9971;DHT22;5026;51.494;11.974;2022-07-23T00:22:14;18.10;93.70
9971;DHT22;5026;51.494;11.974;2022-07-23T00:24:41;18.10;93.70
9971;DHT22;5026;51.494;11.974;2022-07-23T00:27:08;18.00;93.70
9971;DHT22;5026;51.494;11.974;2022-07-23T00:29:34;18.00;93.90
9971;DHT22;5026;51.494;11.974;2022-07-23T00:32:01;18.00;94.00
9971;DHT22;5026;51.494;11.974;2022-07-23T00:34:30;18.00;93.90
9971;DHT22;5026;51.494;11.974;2022-07-23T00:36:57;18.10;93.90
9971;DHT22;5026;51.494;11.974;2022-07-23T00:39:24;18.10;93.80
9971;DHT22;5026;51.494;11.974;2022-07-23T00:41:51;18.10;93.80
9971;DHT22;5026;51.494;11.974;2022-07-23T00:44:20;18.00;93.80
9971;DHT22;5026;51.494;11.974;2022-07-23T00:46:48;17.90;93.90
9971;DHT22;5026;51.494;11.974;2022-07-23T00:49:18;17.90;94.00
9971;DHT22;5026;51.494;11.974;2022-07-23T00:51:47;17.90;94.00
9971;DHT22;5026;51.494;11.974;2022-07-23T00:54:14;17.90;94.00
9971;DHT22;5026;51.494;11.974;2022-07-23T00:56:43;17.90;94.10
9971;DHT22;5026;51.494;11.974;2022-07-23T00:59:11;17.90;94.00
9971;DHT22;5026;51.494;11.974;2022-07-23T01:01:38;18.00;94.10
9971;DHT22;5026;51.494;11.974;2022-07-23T01:04:05;18.00;94.00
9971;DHT22;5026;51.494;11.974;2022-07-23T01:06:35;18.00;93.90
9971;DHT22;5026;51.494;11.974;2022-07-23T01:09:05;18.10;93.90
9971;DHT22;5026;51.494;11.974;2022-07-23T01:11:33;18.00;93.80
9971;DHT22;5026;51.494;11.974;2022-07-23T01:14:07;17.90;93.90
9971;DHT22;5026;51.494;11.974;2022-07-23T01:16:34;17.90;94.10
9971;DHT22;5026;51.494;11.974;2022-07-23T01:19:01;17.90;94.10
9971;DHT22;5026;51.494;11.974;2022-07-23T01:21:36;17.90;94.10
9971;DHT22;5026;51.494;11.974;2022-07-23T01:24:07;17.90;94.10
9971;DHT22;5026;51.494;11.974;2022-07-23T01:26:35;17.90;94.10
9971;DHT22;5026;51.494;11.974;2022-07-23T01:29:03;17.80;94.20
9971;DHT22;5026;51.494;11.974;2022-07-23T01:31:41;17.80;94.20
9971;DHT22;5026;51.494;11.974;2022-07-23T01:34:08;17.60;94.40
9971;DHT22;5026;51.494;11.974;2022-07-23T01:36:35;17.60;94.50
9971;DHT22;5026;51.494;11.974;2022-07-23T01:39:05;17.60;94.50
9971;DHT22;5026;51.494;11.974;2022-07-23T01:41:33;17.70;94.40
9971;DHT22;5026;51.494;11.974;2022-07-23T01:44:00;17.60;94.40
9971;DHT22;5026;51.494;11.974;2022-07-23T01:46:27;17.60;94.40
9971;DHT22;5026;51.494;11.974;2022-07-23T01:48:54;17.70;94.40
9971;DHT22;5026;51.494;11.974;2022-07-23T01:51:21;17.70;94.30
9971;DHT22;5026;51.494;11.974;2022-07-23T01:53:48;17.80;94.30
9971;DHT22;5026;51.494;11.974;2022-07-23T01:56:16;17.80;94.30
9971;DHT22;5026;51.494;11.974;2022-07-23T01:58:46;17.80;94.20
9971;DHT22;5026;51.494;11.974;2022-07-23T02:01:13;17.90;94.20
9971;DHT22;5026;51.494;11.974;2022-07-23T02:03:40;17.90;94.20
9971;DHT22;5026;51.494;11.974;2022-07-23T02:06:07;17.90;94.30
9971;DHT22;5026;51.494;11.974;2022-07-23T02:08:34;17.90;94.20
9971;DHT22;5026;51.494;11.974;2022-07-23T02:11:01;18.00;94.30
9971;DHT22;5026;51.494;11.974;2022-07-23T02:13:29;18.10;94.30
9971;DHT22;5026;51.494;11.974;2022-07-23T02:15:56;18.20;94.20
9971;DHT22;5026;51.494;11.974;2022-07-23T02:18:23;18.30;94.10
9971;DHT22;5026;51.494;11.974;2022-07-23T02:20:50;18.10;94.00
9971;DHT22;5026;51.494;11.974;2022-07-23T02:23:17;18.10;94.20
9971;DHT22;5026;51.494;11.974;2022-07-23T02:25:43;18.10;94.10
9971;DHT22;5026;51.494;11.974;2022-07-23T02:28:10;18.10;94.20
9971;DHT22;5026;51.494;11.974;2022-07-23T02:30:40;17.90;94.20
9971;DHT22;5026;51.494;11.974;2022-07-23T02:33:07;17.70;94.40
9971;DHT22;5026;51.494;11.974;2022-07-23T02:35:34;17.60;94.60
9971;DHT22;5026;51.494;11.974;2022-07-23T02:38:01;17.50;94.50
9971;DHT22;5026;51.494;11.974;2022-07-23T02:40:28;17.50;94.70
9971;DHT22;5026;51.494;11.974;2022-07-23T02:42:55;17.50;94.60
9971;DHT22;5026;51.494;11.974;2022-07-23T02:45:22;17.50;94.50
9971;DHT22;5026;51.494;11.974;2022-07-23T02:47:50;17.50;94.60
9971;DHT22;5026;51.494;11.974;2022-07-23T02:50:17;17.50;94.60
9971;DHT22;5026;51.494;11.974;2022-07-23T02:52:44;17.50;94.50
9971;DHT22;5026;51.494;11.974;2022-07-23T02:55:11;17.50;94.50
9971;DHT22;5026;51.494;11.974;2022-07-23T02:57:38;17.40;94.60
9971;DHT22;5026;51.494;11.974;2022-07-23T03:00:07;17.30;94.70
9971;DHT22;5026;51.494;11.974;2022-07-23T03:02:34;17.30;94.80
9971;DHT22;5026;51.494;11.974;2022-07-23T03:05:04;17.30;94.80
9971;DHT22;5026;51.494;11.974;2022-07-23T03:07:31;17.30;94.80
9971;DHT22;5026;51.494;11.974;2022-07-23T03:09:58;17.30;94.80
9971;DHT22;5026;51.494;11.974;2022-07-23T03:12:24;17.30;94.80
9971;DHT22;5026;51.494;11.974;2022-07-23T03:14:51;17.30;94.90
9971;DHT22;5026;51.494;11.974;2022-07-23T03:17:18;17.20;94.90
9971;DHT22;5026;51.494;11.974;2022-07-23T03:19:45;17.10;95.00
9971;DHT22;5026;51.494;11.974;2022-07-23T03:22:13;17.10;95.10
9971;DHT22;5026;51.494;11.974;2022-07-23T03:24:41;17.10;95.10
9971;DHT22;5026;51.494;11.974;2022-07-23T03:27:24;17.20;95.10
9971;DHT22;5026;51.494;11.974;2022-07-23T03:29:51;17.30;95.00
9971;DHT22;5026;51.494;11.974;2022-07-23T03:32:18;17.20;94.90
9971;DHT22;5026;51.494;11.974;2022-07-23T03:34:45;17.30;95.00
9971;DHT22;5026;51.494;11.974;2022-07-23T03:37:14;17.40;95.00
9971;DHT22;5026;51.494;11.974;2022-07-23T03:39:41;17.50;95.00
9971;DHT22;5026;51.494;11.974;2022-07-23T03:42:08;17.50;95.00
9971;DHT22;5026;51.494;11.974;2022-07-23T03:44:35;17.60;95.00
9971;DHT22;5026;51.494;11.974;2022-07-23T03:47:04;17.70;94.90
9971;DHT22;5026;51.494;11.974;2022-07-23T03:49:31;17.80;95.10
9971;DHT22;5026;51.494;11.974;2022-07-23T03:51:58;17.90;94.90
9971;DHT22;5026;51.494;11.974;2022-07-23T03:54:27;17.90;94.80
9971;DHT22;5026;51.494;11.974;2022-07-23T03:56:54;17.90;94.90
9971;DHT22;5026;51.494;11.974;2022-07-23T03:59:21;18.00;95.00
9971;DHT22;5026;51.494;11.974;2022-07-23T04:01:53;18.00;95.20
9971;DHT22;5026;51.494;11.974;2022-07-23T04:04:19;18.10;95.60
9971;DHT22;5026;51.494;11.974;2022-07-23T04:06:46;18.30;95.90
9971;DHT22;5026;51.494;11.974;2022-07-23T04:09:13;18.30;96.40
9971;DHT22;5026;51.494;11.974;2022-07-23T04:11:42;18.40;96.60
9971;DHT22;5026;51.494;11.974;2022-07-23T04:14:09;17.90;97.50
9971;DHT22;5026;51.494;11.974;2022-07-23T04:16:36;16.00;99.90
9971;DHT22;5026;51.494;11.974;2022-07-23T04:19:03;15.80;99.90
9971;DHT22;5026;51.494;11.974;2022-07-23T04:21:30;15.80;99.90
9971;DHT22;5026;51.494;11.974;2022-07-23T04:23:57;16.00;99.90
9971;DHT22;5026;51.494;11.974;2022-07-23T04:26:24;15.70;99.90
9971;DHT22;5026;51.494;11.974;2022-07-23T04:28:52;15.50;99.90
9971;DHT22;5026;51.494;11.974;2022-07-23T04:31:19;15.70;99.90
9971;DHT22;5026;51.494;11.974;2022-07-23T04:33:46;15.90;99.90
9971;DHT22;5026;51.494;11.974;2022-07-23T04:36:13;16.10;99.90
9971;DHT22;5026;51.494;11.974;2022-07-23T04:38:39;16.00;99.90
9971;DHT22;5026;51.494;11.974;2022-07-23T04:41:06;16.10;99.90
9971;DHT22;5026;51.494;11.974;2022-07-23T04:43:33;15.80;99.90
9971;DHT22;5026;51.494;11.974;2022-07-23T04:46:02;15.70;99.90
9971;DHT22;5026;51.494;11.974;2022-07-23T04:48:28;15.70;99.90
9971;DHT22;5026;51.494;11.974;2022-07-23T04:50:56;15.60;99.90
9971;DHT22;5026;51.494;11.974;2022-07-23T04:53:23;15.70;99.90
9971;DHT22;5026;51.494;11.974;2022-07-23T04:55:50;15.80;99.90
9971;DHT22;5026;51.494;11.974;2022-07-23T04:58:17;15.80;99.90
9971;DHT22;5026;51.494;11.974;2022-07-23T05:00:44;16.00;99.90
9971;DHT22;5026;51.494;11.974;2022-07-23T05:03:12;16.10;99.90
9971;DHT22;5026;51.494;11.974;2022-07-23T05:05:39;16.20;99.90
9971;DHT22;5026;51.494;11.974;2022-07-23T05:08:06;16.20;99.90
9971;DHT22;5026;51.494;11.974;2022-07-23T05:10:33;16.20;99.90
9971;DHT22;5026;51.494;11.974;2022-07-23T05:13:00;16.30;99.90
9971;DHT22;5026;51.494;11.974;2022-07-23T05:15:27;16.30;99.90
9971;DHT22;5026;51.494;11.974;2022-07-23T05:17:54;16.30;99.90
9971;DHT22;5026;51.494;11.974;2022-07-23T05:20:22;16.30;99.90
9971;DHT22;5026;51.494;11.974;2022-07-23T05:22:49;16.40;99.90
9971;DHT22;5026;51.494;11.974;2022-07-23T05:25:16;16.60;99.90
9971;DHT22;5026;51.494;11.974;2022-07-23T05:27:43;16.60;99.90
9971;DHT22;5026;51.494;11.974;2022-07-23T05:30:11;16.70;99.90
9971;DHT22;5026;51.494;11.974;2022-07-23T05:32:38;16.70;99.90
9971;DHT22;5026;51.494;11.974;2022-07-23T05:35:06;16.60;99.90
9971;DHT22;5026;51.494;11.974;2022-07-23T05:37:35;16.70;99.90
9971;DHT22;5026;51.494;11.974;2022-07-23T05:40:03;16.80;99.90
9971;DHT22;5026;51.494;11.974;2022-07-23T05:42:32;16.60;99.90
9971;DHT22;5026;51.494;11.974;2022-07-23T05:44:58;16.60;99.90
9971;DHT22;5026;51.494;11.974;2022-07-23T05:47:25;16.50;99.90
9971;DHT22;5026;51.494;11.974;2022-07-23T05:49:52;16.60;99.90
9971;DHT22;5026;51.494;11.974;2022-07-23T05:52:19;16.40;99.90
9971;DHT22;5026;51.494;11.974;2022-07-23T05:54:48;16.30;99.90
9971;DHT22;5026;51.494;11.974;2022-07-23T05:57:15;16.30;99.90
9971;DHT22;5026;51.494;11.974;2022-07-23T05:59:41;16.40;99.90
9971;DHT22;5026;51.494;11.974;2022-07-23T06:02:08;16.60;99.90
9971;DHT22;5026;51.494;11.974;2022-07-23T06:04:35;16.60;99.90
9971;DHT22;5026;51.494;11.974;2022-07-23T06:07:02;16.60;99.90
9971;DHT22;5026;51.494;11.974;2022-07-23T06:09:29;16.50;99.90
9971;DHT22;5026;51.494;11.974;2022-07-23T06:11:57;16.30;99.90
9971;DHT22;5026;51.494;11.974;2022-07-23T06:14:24;16.40;99.90
9971;DHT22;5026;51.494;11.974;2022-07-23T06:16:51;16.30;99.90
9971;DHT22;5026;51.494;11.974;2022-07-23T06:19:18;16.30;99.90
9971;DHT22;5026;51.494;11.974;2022-07-23T06:21:45;16.20;99.90
9971;DHT22;5026;51.494;11.974;2022-07-23T06:24:12;16.40;99.90
9971;DHT22;5026;51.494;11.974;2022-07-23T06:26:39;16.40;99.90
9971;DHT22;5026;51.494;11.974;2022-07-23T06:29:07;16.50;99.90
9971;DHT22;5026;51.494;11.974;2022-07-23T06:31:34;16.80;99.90
9971;DHT22;5026;51.494;11.974;2022-07-23T06:34:01;16.90;99.90
9971;DHT22;5026;51.494;11.974;2022-07-23T06:36:28;16.90;99.90
9971;DHT22;5026;51.494;11.974;2022-07-23T06:38:55;17.00;99.90
9971;DHT22;5026;51.494;11.974;2022-07-23T06:41:22;16.80;99.90
9971;DHT22;5026;51.494;11.974;2022-07-23T06:43:49;17.20;99.90
9971;DHT22;5026;51.494;11.974;2022-07-23T06:46:18;17.50;99.90
9971;DHT22;5026;51.494;11.974;2022-07-23T06:48:46;17.70;99.90
9971;DHT22;5026;51.494;11.974;2022-07-23T06:51:13;17.60;99.90
9971;DHT22;5026;51.494;11.974;2022-07-23T06:53:40;17.70;99.90
9971;DHT22;5026;51.494;11.974;2022-07-23T06:56:07;18.20;99.90
9971;DHT22;5026;51.494;11.974;2022-07-23T06:58:34;18.40;99.90
9971;DHT22;5026;51.494;11.974;2022-07-23T07:01:01;18.50;99.90
9971;DHT22;5026;51.494;11.974;2022-07-23T07:03:30;18.70;99.90
9971;DHT22;5026;51.494;11.974;2022-07-23T07:05:56;18.80;99.90
9971;DHT22;5026;51.494;11.974;2022-07-23T07:08:24;18.50;99.90
9971;DHT22;5026;51.494;11.974;2022-07-23T07:10:55;18.50;99.90
9971;DHT22;5026;51.494;11.974;2022-07-23T07:13:22;18.60;99.90
9971;DHT22;5026;51.494;11.974;2022-07-23T07:15:49;18.70;99.90
9971;DHT22;5026;51.494;11.974;2022-07-23T07:18:16;18.70;99.90
9971;DHT22;5026;51.494;11.974;2022-07-23T07:20:45;18.60;99.90
9971;DHT22;5026;51.494;11.974;2022-07-23T07:23:12;18.60;99.90
9971;DHT22;5026;51.494;11.974;2022-07-23T07:25:40;18.70;99.90
9971;DHT22;5026;51.494;11.974;2022-07-23T07:28:07;18.70;99.90
9971;DHT22;5026;51.494;11.974;2022-07-23T07:30:34;18.80;99.90
9971;DHT22;5026;51.494;11.974;2022-07-23T07:33:00;19.00;99.90
9971;DHT22;5026;51.494;11.974;2022-07-23T07:35:28;19.20;99.90
9971;DHT22;5026;51.494;11.974;2022-07-23T07:37:56;19.70;99.90
9971;DHT22;5026;51.494;11.974;2022-07-23T07:40:23;20.30;99.90
9971;DHT22;5026;51.494;11.974;2022-07-23T07:42:51;20.60;99.90
9971;DHT22;5026;51.494;11.974;2022-07-23T07:45:20;20.50;99.90
9971;DHT22;5026;51.494;11.974;2022-07-23T07:47:48;20.40;99.90
9971;DHT22;5026;51.494;11.974;2022-07-23T07:50:16;20.40;99.90
9971;DHT22;5026;51.494;11.974;2022-07-23T07:52:43;20.30;99.90
9971;DHT22;5026;51.494;11.974;2022-07-23T07:55:12;20.30;99.90
9971;DHT22;5026;51.494;11.974;2022-07-23T07:57:39;20.30;99.90
9971;DHT22;5026;51.494;11.974;2022-07-23T08:00:09;19.90;99.90
9971;DHT22;5026;51.494;11.974;2022-07-23T08:02:43;19.60;99.90
9971;DHT22;5026;51.494;11.974;2022-07-23T08:05:10;19.70;99.90
9971;DHT22;5026;51.494;11.974;2022-07-23T08:07:38;19.70;99.90
9971;DHT22;5026;51.494;11.974;2022-07-23T08:10:07;19.80;99.90
9971;DHT22;5026;51.494;11.974;2022-07-23T08:12:40;19.80;99.90
9971;DHT22;5026;51.494;11.974;2022-07-23T08:15:08;19.90;99.90
9971;DHT22;5026;51.494;11.974;2022-07-23T08:17:36;20.00;99.90
9971;DHT22;5026;51.494;11.974;2022-07-23T08:20:04;20.20;99.90
9971;DHT22;5026;51.494;11.974;2022-07-23T08:22:45;20.40;99.90
9971;DHT22;5026;51.494;11.974;2022-07-23T08:25:12;20.30;99.90
9971;DHT22;5026;51.494;11.974;2022-07-23T08:27:41;20.40;99.90
9971;DHT22;5026;51.494;11.974;2022-07-23T08:30:09;20.40;99.90
9971;DHT22;5026;51.494;11.974;2022-07-23T08:32:49;20.30;99.90
9971;DHT22;5026;51.494;11.974;2022-07-23T08:35:17;20.30;99.90
9971;DHT22;5026;51.494;11.974;2022-07-23T08:37:44;20.50;99.90
9971;DHT22;5026;51.494;11.974;2022-07-23T08:40:12;20.40;99.90
9971;DHT22;5026;51.494;11.974;2022-07-23T08:42:40;20.50;99.90
9971;DHT22;5026;51.494;11.974;2022-07-23T08:45:08;20.50;99.90
9971;DHT22;5026;51.494;11.974;2022-07-23T08:47:37;20.60;99.90
9971;DHT22;5026;51.494;11.974;2022-07-23T08:50:05;20.70;99.90
9971;DHT22;5026;51.494;11.974;2022-07-23T08:52:34;20.80;99.90
9971;DHT22;5026;51.494;11.974;2022-07-23T08:55:03;20.70;99.90
9971;DHT22;5026;51.494;11.974;2022-07-23T08:57:30;20.80;99.90
9971;DHT22;5026;51.494;11.974;2022-07-23T08:59:58;21.00;99.90
9971;DHT22;5026;51.494;11.974;2022-07-23T09:02:25;21.10;99.90
9971;DHT22;5026;51.494;11.974;2022-07-23T09:04:52;21.00;99.90
9971;DHT22;5026;51.494;11.974;2022-07-23T09:07:19;21.10;99.90
9971;DHT22;5026;51.494;11.974;2022-07-23T09:09:46;21.10;99.90
9971;DHT22;5026;51.494;11.974;2022-07-23T09:12:13;21.20;99.90
9971;DHT22;5026;51.494;11.974;2022-07-23T09:14:42;21.20;99.90
9971;DHT22;5026;51.494;11.974;2022-07-23T09:17:12;21.20;99.90
9971;DHT22;5026;51.494;11.974;2022-07-23T09:19:39;21.20;99.90
9971;DHT22;5026;51.494;11.974;2022-07-23T09:22:23;21.10;99.90
9971;DHT22;5026;51.494;11.974;2022-07-23T09:25:12;21.10;99.90
9971;DHT22;5026;51.494;11.974;2022-07-23T09:27:50;21.00;99.90
9971;DHT22;5026;51.494;11.974;2022-07-23T09:30:18;20.90;99.90
9971;DHT22;5026;51.494;11.974;2022-07-23T09:33:04;20.70;99.90
9971;DHT22;5026;51.494;11.974;2022-07-23T09:35:44;20.70;99.90
9971;DHT22;5026;51.494;11.974;2022-07-23T09:38:11;20.60;99.90
9971;DHT22;5026;51.494;11.974;2022-07-23T09:40:38;20.50;99.90
9971;DHT22;5026;51.494;11.974;2022-07-23T09:43:05;20.60;99.90
9971;DHT22;5026;51.494;11.974;2022-07-23T09:45:32;20.70;99.90
9971;DHT22;5026;51.494;11.974;2022-07-23T09:48:12;20.80;99.90
9971;DHT22;5026;51.494;11.974;2022-07-23T09:50:39;20.90;99.90
9971;DHT22;5026;51.494;11.974;2022-07-23T09:53:06;21.10;99.90
9971;DHT22;5026;51.494;11.974;2022-07-23T09:55:35;21.20;99.90
9971;DHT22;5026;51.494;11.974;2022-07-23T09:58:04;21.30;99.90
9971;DHT22;5026;51.494;11.974;2022-07-23T10:00:32;21.30;99.90
9971;DHT22;5026;51.494;11.974;2022-07-23T10:02:59;21.50;99.90
9971;DHT22;5026;51.494;11.974;2022-07-23T10:05:30;21.80;99.90
9971;DHT22;5026;51.494;11.974;2022-07-23T10:07:58;22.00;99.90
9971;DHT22;5026;51.494;11.974;2022-07-23T10:10:26;22.10;99.20
9971;DHT22;5026;51.494;11.974;2022-07-23T10:12:55;22.10;98.90
9971;DHT22;5026;51.494;11.974;2022-07-23T10:15:40;22.10;98.80
9971;DHT22;5026;51.494;11.974;2022-07-23T10:18:10;22.30;98.60
9971;DHT22;5026;51.494;11.974;2022-07-23T10:20:39;22.30;97.90
9971;DHT22;5026;51.494;11.974;2022-07-23T10:23:13;22.30;98.00
9971;DHT22;5026;51.494;11.974;2022-07-23T10:25:48;22.30;97.90
9971;DHT22;5026;51.494;11.974;2022-07-23T10:28:41;22.30;97.60
9971;DHT22;5026;51.494;11.974;2022-07-23T10:31:17;22.30;97.60
9971;DHT22;5026;51.494;11.974;2022-07-23T10:33:54;22.10;97.50
9971;DHT22;5026;51.494;11.974;2022-07-23T10:36:31;22.00;97.60
9971;DHT22;5026;51.494;11.974;2022-07-23T10:39:04;22.00;97.50
9971;DHT22;5026;51.494;11.974;2022-07-23T10:41:33;21.90;97.80
9971;DHT22;5026;51.494;11.974;2022-07-23T10:44:07;22.00;98.10
9971;DHT22;5026;51.494;11.974;2022-07-23T10:46:34;22.10;97.70
9971;DHT22;5026;51.494;11.974;2022-07-23T10:49:30;22.30;97.60
9971;DHT22;5026;51.494;11.974;2022-07-23T10:54:54;23.80;96.60
9971;DHT22;5026;51.494;11.974;2022-07-23T10:57:23;24.40;95.50
9971;DHT22;5026;51.494;11.974;2022-07-23T11:00:15;24.60;94.50
9971;DHT22;5026;51.494;11.974;2022-07-23T11:02:44;24.70;93.80
9971;DHT22;5026;51.494;11.974;2022-07-23T11:05:14;24.70;93.30
9971;DHT22;5026;51.494;11.974;2022-07-23T11:08:14;24.70;93.60
9971;DHT22;5026;51.494;11.974;2022-07-23T11:10:44;24.90;93.30
9971;DHT22;5026;51.494;11.974;2022-07-23T11:13:28;25.10;92.80
9971;DHT22;5026;51.494;11.974;2022-07-23T11:16:04;24.60;93.30
9971;DHT22;5026;51.494;11.974;2022-07-23T11:18:54;25.10;93.10
9971;DHT22;5026;51.494;11.974;2022-07-23T11:21:46;25.40;92.60
9971;DHT22;5026;51.494;11.974;2022-07-23T11:24:17;25.70;92.40
9971;DHT22;5026;51.494;11.974;2022-07-23T11:26:47;26.10;92.00
9971;DHT22;5026;51.494;11.974;2022-07-23T11:29:43;26.20;91.10
9971;DHT22;5026;51.494;11.974;2022-07-23T11:32:33;26.20;91.10
9971;DHT22;5026;51.494;11.974;2022-07-23T11:35:18;25.30;91.20
9971;DHT22;5026;51.494;11.974;2022-07-23T11:37:46;24.70;91.70
9971;DHT22;5026;51.494;11.974;2022-07-23T11:40:16;25.50;91.80
9971;DHT22;5026;51.494;11.974;2022-07-23T11:42:56;26.30;91.40
9971;DHT22;5026;51.494;11.974;2022-07-23T11:45:24;26.70;90.70
9971;DHT22;5026;51.494;11.974;2022-07-23T11:47:51;26.80;90.10
9971;DHT22;5026;51.494;11.974;2022-07-23T11:50:18;26.60;90.00
9971;DHT22;5026;51.494;11.974;2022-07-23T11:52:45;25.60;90.50
9971;DHT22;5026;51.494;11.974;2022-07-23T11:55:12;25.10;91.30
9971;DHT22;5026;51.494;11.974;2022-07-23T11:57:43;25.40;91.20
9971;DHT22;5026;51.494;11.974;2022-07-23T12:00:12;25.30;91.30
9971;DHT22;5026;51.494;11.974;2022-07-23T12:02:40;25.40;91.50
9971;DHT22;5026;51.494;11.974;2022-07-23T12:05:10;25.50;91.40
9971;DHT22;5026;51.494;11.974;2022-07-23T12:07:39;25.20;91.10
9971;DHT22;5026;51.494;11.974;2022-07-23T12:10:14;24.80;91.50
9971;DHT22;5026;51.494;11.974;2022-07-23T12:12:44;24.60;91.80
9971;DHT22;5026;51.494;11.974;2022-07-23T12:15:12;24.40;92.00
9971;DHT22;5026;51.494;11.974;2022-07-23T12:17:40;24.60;92.00
9971;DHT22;5026;51.494;11.974;2022-07-23T12:20:10;24.80;92.20
9971;DHT22;5026;51.494;11.974;2022-07-23T12:22:41;24.80;92.20
9971;DHT22;5026;51.494;11.974;2022-07-23T12:25:10;24.80;91.90
9971;DHT22;5026;51.494;11.974;2022-07-23T12:27:37;24.20;92.10
9971;DHT22;5026;51.494;11.974;2022-07-23T12:30:37;23.80;92.50
9971;DHT22;5026;51.494;11.974;2022-07-23T12:33:08;24.00;93.00
9971;DHT22;5026;51.494;11.974;2022-07-23T12:35:37;24.10;92.90
9971;DHT22;5026;51.494;11.974;2022-07-23T12:38:08;24.10;93.30
9971;DHT22;5026;51.494;11.974;2022-07-23T12:40:37;24.40;92.90
9971;DHT22;5026;51.494;11.974;2022-07-23T12:43:06;24.80;92.90
9971;DHT22;5026;51.494;11.974;2022-07-23T12:45:45;25.10;92.70
9971;DHT22;5026;51.494;11.974;2022-07-23T12:48:18;24.30;92.20
9971;DHT22;5026;51.494;11.974;2022-07-23T12:50:52;24.60;92.60
9971;DHT22;5026;51.494;11.974;2022-07-23T12:53:22;24.90;92.40
9971;DHT22;5026;51.494;11.974;2022-07-23T12:55:51;25.20;92.10
9971;DHT22;5026;51.494;11.974;2022-07-23T12:58:23;25.20;92.20
9971;DHT22;5026;51.494;11.974;2022-07-23T13:01:03;25.40;92.00
9971;DHT22;5026;51.494;11.974;2022-07-23T13:03:34;25.50;91.60
9971;DHT22;5026;51.494;11.974;2022-07-23T13:06:03;25.90;91.70
9971;DHT22;5026;51.494;11.974;2022-07-23T13:08:32;25.50;91.40
9971;DHT22;5026;51.494;11.974;2022-07-23T13:10:59;24.80;91.90
9971;DHT22;5026;51.494;11.974;2022-07-23T13:13:28;25.30;92.00
9971;DHT22;5026;51.494;11.974;2022-07-23T13:15:56;25.40;91.60
9971;DHT22;5026;51.494;11.974;2022-07-23T13:18:26;25.50;91.70
9971;DHT22;5026;51.494;11.974;2022-07-23T13:20:53;25.20;91.30
9971;DHT22;5026;51.494;11.974;2022-07-23T13:23:20;25.30;91.60
9971;DHT22;5026;51.494;11.974;2022-07-23T13:25:48;25.00;91.40
9971;DHT22;5026;51.494;11.974;2022-07-23T13:28:16;24.90;91.90
9971;DHT22;5026;51.494;11.974;2022-07-23T13:30:45;24.90;91.60
9971;DHT22;5026;51.494;11.974;2022-07-23T13:33:13;24.50;91.60
9971;DHT22;5026;51.494;11.974;2022-07-23T13:35:41;24.50;92.30
9971;DHT22;5026;51.494;11.974;2022-07-23T13:38:08;24.20;92.20
9971;DHT22;5026;51.494;11.974;2022-07-23T13:40:36;24.40;92.30
9971;DHT22;5026;51.494;11.974;2022-07-23T13:43:05;24.60;92.30
9971;DHT22;5026;51.494;11.974;2022-07-23T13:45:33;24.90;92.40
9971;DHT22;5026;51.494;11.974;2022-07-23T13:48:01;24.80;92.00
9971;DHT22;5026;51.494;11.974;2022-07-23T13:50:28;24.70;92.10
9971;DHT22;5026;51.494;11.974;2022-07-23T13:52:56;24.70;92.20
9971;DHT22;5026;51.494;11.974;2022-07-23T13:55:23;24.80;91.90
9971;DHT22;5026;51.494;11.974;2022-07-23T13:57:51;24.60;91.70
9971;DHT22;5026;51.494;11.974;2022-07-23T14:00:18;24.50;91.80
9971;DHT22;5026;51.494;11.974;2022-07-23T14:02:45;24.40;92.00
9971;DHT22;5026;51.494;11.974;2022-07-23T14:05:12;24.40;92.10
9971;DHT22;5026;51.494;11.974;2022-07-23T14:07:39;24.50;92.20
9971;DHT22;5026;51.494;11.974;2022-07-23T14:10:10;24.60;92.00
9971;DHT22;5026;51.494;11.974;2022-07-23T14:12:37;24.90;91.90
9971;DHT22;5026;51.494;11.974;2022-07-23T14:15:05;25.00;91.70
9971;DHT22;5026;51.494;11.974;2022-07-23T14:17:34;24.80;91.40
9971;DHT22;5026;51.494;11.974;2022-07-23T14:20:01;24.60;91.50
9971;DHT22;5026;51.494;11.974;2022-07-23T14:22:28;24.60;91.70
9971;DHT22;5026;51.494;11.974;2022-07-23T14:24:55;24.90;91.80
9971;DHT22;5026;51.494;11.974;2022-07-23T14:27:25;25.00;91.70
9971;DHT22;5026;51.494;11.974;2022-07-23T14:29:53;25.20;91.60
9971;DHT22;5026;51.494;11.974;2022-07-23T14:32:20;25.20;91.10
9971;DHT22;5026;51.494;11.974;2022-07-23T14:34:47;25.40;91.10
9971;DHT22;5026;51.494;11.974;2022-07-23T14:37:14;25.60;91.10
9971;DHT22;5026;51.494;11.974;2022-07-23T14:39:42;25.70;90.60
9971;DHT22;5026;51.494;11.974;2022-07-23T14:42:09;25.70;90.60
9971;DHT22;5026;51.494;11.974;2022-07-23T14:44:37;25.60;90.50
9971;DHT22;5026;51.494;11.974;2022-07-23T14:47:05;25.60;90.70
9971;DHT22;5026;51.494;11.974;2022-07-23T14:49:32;25.40;90.00
9971;DHT22;5026;51.494;11.974;2022-07-23T14:52:00;25.50;90.30
9971;DHT22;5026;51.494;11.974;2022-07-23T14:54:28;25.60;90.30
9971;DHT22;5026;51.494;11.974;2022-07-23T14:56:56;25.50;90.30
9971;DHT22;5026;51.494;11.974;2022-07-23T14:59:23;25.30;89.40
9971;DHT22;5026;51.494;11.974;2022-07-23T15:01:51;25.20;89.40
9971;DHT22;5026;51.494;11.974;2022-07-23T15:04:18;25.30;90.00
9971;DHT22;5026;51.494;11.974;2022-07-23T15:06:45;25.10;90.20
9971;DHT22;5026;51.494;11.974;2022-07-23T15:09:12;25.30;90.20
9971;DHT22;5026;51.494;11.974;2022-07-23T15:11:40;25.30;89.20
9971;DHT22;5026;51.494;11.974;2022-07-23T15:14:07;25.30;89.20
9971;DHT22;5026;51.494;11.974;2022-07-23T15:16:35;25.40;89.30
9971;DHT22;5026;51.494;11.974;2022-07-23T15:19:04;25.40;89.00
9971;DHT22;5026;51.494;11.974;2022-07-23T15:21:31;25.40;89.40
9971;DHT22;5026;51.494;11.974;2022-07-23T15:23:58;25.50;89.00
9971;DHT22;5026;51.494;11.974;2022-07-23T15:26:25;25.50;89.00
9971;DHT22;5026;51.494;11.974;2022-07-23T15:28:53;25.50;89.00
9971;DHT22;5026;51.494;11.974;2022-07-23T15:31:20;25.50;87.80
9971;DHT22;5026;51.494;11.974;2022-07-23T15:33:47;25.50;88.80
9971;DHT22;5026;51.494;11.974;2022-07-23T15:36:17;25.30;88.30
9971;DHT22;5026;51.494;11.974;2022-07-23T15:38:44;25.20;88.30
9971;DHT22;5026;51.494;11.974;2022-07-23T15:41:11;25.10;88.60
9971;DHT22;5026;51.494;11.974;2022-07-23T15:43:38;25.20;88.40
9971;DHT22;5026;51.494;11.974;2022-07-23T15:46:06;25.40;88.20
9971;DHT22;5026;51.494;11.974;2022-07-23T15:48:35;25.60;87.40
9971;DHT22;5026;51.494;11.974;2022-07-23T15:51:02;25.60;87.10
9971;DHT22;5026;51.494;11.974;2022-07-23T15:53:31;25.60;87.40
9971;DHT22;5026;51.494;11.974;2022-07-23T15:55:58;25.60;87.60
9971;DHT22;5026;51.494;11.974;2022-07-23T15:58:26;25.30;87.60